Time;durP1;ratioP1;P1;durP2;ratioP2;P2;SDS_P1;SDS_P2;PMS_P1;PMS_P2;Temp;Humidity;BMP_temperature;BMP_pressure;BME280_temperature;BME280_humidity;BME280_pressure;Samples;Min_cycle;Max_cycle;Signal;HPM_P1;HPM_P2
2023/03/28 00:00:03;;;;;;;2.70;1.92;;;;;;;;;;5023007;28;20036;-72
2023/03/28 00:02:28;;;;;;;3.00;1.80;;;;;;;;;;5049590;28;20436;-71
2023/03/28 00:04:54;;;;;;;2.92;1.83;;;;;;;;;;5045872;28;20531;-72
2023/03/28 00:07:19;;;;;;;2.83;1.90;;;;;;;;;;5038992;28;20032;-73
2023/03/28 00:09:46;;;;;;;2.20;1.33;;;;;;;;;;5046151;28;20319;-72
2023/03/28 00:12:11;;;;;;;2.97;1.63;;;;;;;;;;5026173;28;20040;-72
2023/03/28 00:14:37;;;;;;;2.67;1.60;;;;;;;;;;5047474;28;20025;-72
2023/03/28 00:17:06;;;;;;;2.78;1.90;;;;;;;;;;5044759;28;21146;-72
2023/03/28 00:19:31;;;;;;;2.67;1.63;;;;;;;;;;5036323;28;20037;-72
2023/03/28 00:21:57;;;;;;;2.72;1.50;;;;;;;;;;5035838;28;20045;-72
2023/03/28 00:24:22;;;;;;;2.20;1.43;;;;;;;;;;5028774;28;20106;-72
2023/03/28 00:26:48;;;;;;;2.30;1.60;;;;;;;;;;5036447;28;20766;-72
2023/03/28 00:29:20;;;;;;;2.75;1.67;;;;;;;;;;5047136;28;20294;-73
2023/03/28 00:31:45;;;;;;;2.38;1.38;;;;;;;;;;5044445;28;20029;-72
2023/03/28 00:34:11;;;;;;;3.00;1.90;;;;;;;;;;5027454;28;20053;-72
2023/03/28 00:36:38;;;;;;;2.00;1.40;;;;;;;;;;5004832;28;20045;-72
2023/03/28 00:39:05;;;;;;;2.25;1.60;;;;;;;;;;5045810;28;20057;-72
2023/03/28 00:41:31;;;;;;;2.55;1.40;;;;;;;;;;5040236;28;20081;-72
2023/03/28 00:43:56;;;;;;;1.77;1.23;;;;;;;;;;5028389;28;20537;-73
2023/03/28 00:46:34;;;;;;;1.98;1.40;;;;;;;;;;5023417;28;20503;-72
2023/03/28 00:49:03;;;;;;;2.67;1.42;;;;;;;;;;5001459;28;20068;-72
2023/03/28 00:51:38;;;;;;;2.25;1.25;;;;;;;;;;5044496;28;20033;-73
2023/03/28 00:54:04;;;;;;;2.60;1.40;;;;;;;;;;5037290;28;20113;-73
2023/03/28 00:56:30;;;;;;;2.28;1.38;;;;;;;;;;5045708;28;20053;-72
2023/03/28 00:58:55;;;;;;;2.05;1.40;;;;;;;;;;5024095;28;20037;-73
2023/03/28 01:01:21;;;;;;;1.92;1.23;;;;;;;;;;5021367;28;20029;-73
2023/03/28 01:03:48;;;;;;;2.40;1.20;;;;;;;;;;5045304;28;20569;-73
2023/03/28 01:06:14;;;;;;;2.05;1.23;;;;;;;;;;5020141;28;20036;-73
2023/03/28 01:08:40;;;;;;;2.20;1.10;;;;;;;;;;5046799;28;20139;-72
2023/03/28 01:11:05;;;;;;;1.77;1.15;;;;;;;;;;5035586;28;20259;-73
2023/03/28 01:13:31;;;;;;;2.10;1.30;;;;;;;;;;5013974;28;20037;-72
2023/03/28 01:15:58;;;;;;;2.13;1.30;;;;;;;;;;5020706;28;20026;-73
2023/03/28 01:18:23;;;;;;;3.10;1.38;;;;;;;;;;5041956;28;20053;-72
2023/03/28 01:20:51;;;;;;;2.35;1.35;;;;;;;;;;5023471;28;20098;-72
2023/03/28 01:23:35;;;;;;;1.98;1.20;;;;;;;;;;5037110;28;20052;-72
2023/03/28 01:26:13;;;;;;;1.98;1.02;;;;;;;;;;5039678;28;20460;-72
2023/03/28 01:28:44;;;;;;;1.98;1.30;;;;;;;;;;5024717;28;20029;-72
2023/03/28 01:31:24;;;;;;;1.88;1.38;;;;;;;;;;5019788;28;20033;-73
2023/03/28 01:34:08;;;;;;;1.95;1.10;;;;;;;;;;5041968;28;20110;-73
2023/03/28 01:36:34;;;;;;;2.85;1.40;;;;;;;;;;5042232;28;20072;-72
2023/03/28 01:39:03;;;;;;;1.77;1.27;;;;;;;;;;5026977;28;20067;-72
2023/03/28 01:41:44;;;;;;;1.43;1.17;;;;;;;;;;4997991;28;20025;-72
2023/03/28 01:44:28;;;;;;;1.58;1.10;;;;;;;;;;5018978;28;20040;-72
2023/03/28 01:47:14;;;;;;;1.80;1.13;;;;;;;;;;5035289;28;20040;-72
2023/03/28 01:49:46;;;;;;;1.58;1.15;;;;;;;;;;5018055;28;20041;-72
2023/03/28 01:52:27;;;;;;;1.80;1.13;;;;;;;;;;4999861;28;20144;-73
2023/03/28 01:54:58;;;;;;;1.52;1.08;;;;;;;;;;5044696;28;20032;-73
2023/03/28 01:57:26;;;;;;;1.55;1.00;;;;;;;;;;5039033;28;20044;-73
2023/03/28 02:00:14;;;;;;;2.40;1.20;;;;;;;;;;5025862;28;20041;-72
2023/03/28 02:02:41;;;;;;;1.40;1.10;;;;;;;;;;5016159;28;20130;-73
2023/03/28 02:05:07;;;;;;;1.30;0.93;;;;;;;;;;5027628;28;20132;-72
2023/03/28 02:07:33;;;;;;;1.80;1.00;;;;;;;;;;5014988;28;20593;-73
2023/03/28 02:09:58;;;;;;;1.67;1.20;;;;;;;;;;5020162;28;20037;-72
2023/03/28 02:12:29;;;;;;;1.63;0.97;;;;;;;;;;5033626;28;20087;-72
2023/03/28 02:14:55;;;;;;;1.50;1.10;;;;;;;;;;5027494;28;20292;-72
2023/03/28 02:17:20;;;;;;;1.42;0.95;;;;;;;;;;5018026;28;20079;-72
2023/03/28 02:19:54;;;;;;;1.38;0.95;;;;;;;;;;5030252;28;20075;-72
2023/03/28 02:22:28;;;;;;;1.38;0.93;;;;;;;;;;5026627;28;20048;-72
2023/03/28 02:24:55;;;;;;;1.48;1.00;;;;;;;;;;5015329;28;20060;-72
2023/03/28 02:27:21;;;;;;;1.70;1.00;;;;;;;;;;5019116;28;20024;-72
2023/03/28 02:29:48;;;;;;;1.77;1.17;;;;;;;;;;5025273;28;20057;-72
2023/03/28 02:32:13;;;;;;;2.17;1.02;;;;;;;;;;5026748;28;20119;-72
2023/03/28 02:34:39;;;;;;;1.25;0.90;;;;;;;;;;5025089;28;20037;-72
2023/03/28 02:37:15;;;;;;;1.30;0.90;;;;;;;;;;5040684;28;20487;-72
2023/03/28 02:39:43;;;;;;;1.80;1.15;;;;;;;;;;5040485;28;20695;-74
2023/03/28 02:42:12;;;;;;;1.20;0.93;;;;;;;;;;5024679;28;20052;-73
2023/03/28 02:44:51;;;;;;;1.42;1.10;;;;;;;;;;5044644;28;20025;-72
2023/03/28 02:47:35;;;;;;;1.63;1.10;;;;;;;;;;5025245;28;20488;-72
2023/03/28 02:50:00;;;;;;;1.65;0.95;;;;;;;;;;5042024;28;20111;-73
2023/03/28 02:52:29;;;;;;;1.40;0.90;;;;;;;;;;5033988;28;20080;-72
2023/03/28 02:54:58;;;;;;;1.75;0.90;;;;;;;;;;5044333;28;20395;-73
2023/03/28 02:57:27;;;;;;;1.30;0.93;;;;;;;;;;5029547;28;20041;-73
2023/03/28 02:59:53;;;;;;;1.30;0.90;;;;;;;;;;5013701;28;20041;-73
2023/03/28 03:02:20;;;;;;;1.55;1.08;;;;;;;;;;5030308;28;20156;-72
2023/03/28 03:04:45;;;;;;;1.40;1.00;;;;;;;;;;5024172;28;20041;-72
2023/03/28 03:07:10;;;;;;;1.45;1.08;;;;;;;;;;5027654;28;20800;-73
2023/03/28 03:09:36;;;;;;;1.30;0.80;;;;;;;;;;5026812;28;20025;-73
2023/03/28 03:12:01;;;;;;;1.57;1.10;;;;;;;;;;5044587;28;20375;-73
2023/03/28 03:14:26;;;;;;;1.20;0.90;;;;;;;;;;5060297;28;20287;-74
2023/03/28 03:16:51;;;;;;;1.45;1.00;;;;;;;;;;5053075;28;20086;-73
2023/03/28 03:19:17;;;;;;;1.45;0.98;;;;;;;;;;5048282;28;20037;-73
2023/03/28 03:21:42;;;;;;;2.03;0.93;;;;;;;;;;5029916;28;20083;-72
2023/03/28 03:24:08;;;;;;;1.20;0.82;;;;;;;;;;5013231;28;20041;-73
2023/03/28 03:26:34;;;;;;;1.73;1.10;;;;;;;;;;5047834;28;20060;-72
2023/03/28 03:29:00;;;;;;;1.60;0.90;;;;;;;;;;5052800;28;20039;-72
2023/03/28 03:31:25;;;;;;;1.13;0.90;;;;;;;;;;5046514;28;20581;-72
2023/03/28 03:33:50;;;;;;;1.40;0.90;;;;;;;;;;5025555;28;20025;-72
2023/03/28 03:36:17;;;;;;;1.30;0.80;;;;;;;;;;5032106;28;20080;-72
2023/03/28 03:38:42;;;;;;;1.10;0.80;;;;;;;;;;5033599;28;20382;-72
2023/03/28 03:41:08;;;;;;;1.00;0.80;;;;;;;;;;5046490;28;20124;-72
2023/03/28 03:43:33;;;;;;;1.40;0.87;;;;;;;;;;5042784;28;20075;-72
2023/03/28 03:45:59;;;;;;;1.30;1.00;;;;;;;;;;5043311;28;20315;-72
2023/03/28 03:48:24;;;;;;;1.10;0.88;;;;;;;;;;5026831;28;20385;-73
2023/03/28 03:50:50;;;;;;;1.10;0.82;;;;;;;;;;5044081;28;20538;-72
2023/03/28 03:53:15;;;;;;;0.90;0.80;;;;;;;;;;5042179;28;20037;-73
2023/03/28 03:55:40;;;;;;;0.70;0.70;;;;;;;;;;5025274;28;20439;-73
2023/03/28 03:58:06;;;;;;;1.10;0.80;;;;;;;;;;5020273;28;20345;-74
2023/03/28 04:00:31;;;;;;;1.20;0.90;;;;;;;;;;5044338;28;20298;-73
2023/03/28 04:02:56;;;;;;;1.13;0.80;;;;;;;;;;5046144;28;20686;-73
2023/03/28 04:05:21;;;;;;;1.00;0.70;;;;;;;;;;5045382;28;20338;-73
2023/03/28 04:07:47;;;;;;;1.27;0.90;;;;;;;;;;5028809;28;20085;-73
2023/03/28 04:10:12;;;;;;;1.48;0.88;;;;;;;;;;5045000;28;20048;-72
2023/03/28 04:12:37;;;;;;;1.43;0.77;;;;;;;;;;5025352;28;20041;-73
2023/03/28 04:15:03;;;;;;;1.13;0.87;;;;;;;;;;5043946;28;20032;-73
2023/03/28 04:17:33;;;;;;;0.90;0.73;;;;;;;;;;5026931;28;20064;-71
2023/03/28 04:19:58;;;;;;;1.17;0.80;;;;;;;;;;5010306;28;20029;-74
2023/03/28 04:22:28;;;;;;;1.10;0.80;;;;;;;;;;5045314;28;20067;-73
2023/03/28 04:24:55;;;;;;;1.30;0.95;;;;;;;;;;5011565;28;20381;-74
2023/03/28 04:27:24;;;;;;;1.10;0.90;;;;;;;;;;5027441;28;20037;-72
2023/03/28 04:29:52;;;;;;;1.33;1.00;;;;;;;;;;5030271;28;20506;-72
2023/03/28 04:32:17;;;;;;;0.98;0.63;;;;;;;;;;5029059;28;20060;-72
2023/03/28 04:34:44;;;;;;;1.10;0.70;;;;;;;;;;5045083;28;20123;-72
2023/03/28 04:37:10;;;;;;;1.15;0.80;;;;;;;;;;5045659;28;20897;-74
2023/03/28 04:39:35;;;;;;;1.08;0.70;;;;;;;;;;5026107;28;20044;-72
2023/03/28 04:42:03;;;;;;;1.10;0.80;;;;;;;;;;5041500;28;20519;-78
2023/03/28 04:44:28;;;;;;;1.13;0.80;;;;;;;;;;5025672;28;20088;-72
2023/03/28 04:46:53;;;;;;;1.37;0.80;;;;;;;;;;5028325;28;20482;-72
2023/03/28 04:49:20;;;;;;;1.00;0.80;;;;;;;;;;5023883;28;20370;-73
2023/03/28 04:51:45;;;;;;;0.98;0.80;;;;;;;;;;5018566;28;20139;-74
2023/03/28 04:54:10;;;;;;;1.03;0.70;;;;;;;;;;5017456;28;20726;-74
2023/03/28 04:56:35;;;;;;;1.00;0.80;;;;;;;;;;5032602;28;20300;-72
2023/03/28 04:59:01;;;;;;;1.00;0.70;;;;;;;;;;5030738;28;20325;-75
2023/03/28 05:01:26;;;;;;;1.40;0.87;;;;;;;;;;5004093;28;20037;-81
2023/03/28 05:03:51;;;;;;;0.82;0.70;;;;;;;;;;5041863;28;20299;-73
2023/03/28 05:06:17;;;;;;;0.82;0.60;;;;;;;;;;5043986;28;20041;-73
2023/03/28 05:08:42;;;;;;;1.30;0.70;;;;;;;;;;5043401;28;20033;-77
2023/03/28 05:11:08;;;;;;;1.67;0.70;;;;;;;;;;5031361;28;20025;-75
2023/03/28 05:13:33;;;;;;;0.90;0.65;;;;;;;;;;5048032;28;20056;-77
2023/03/28 05:15:58;;;;;;;1.10;0.80;;;;;;;;;;5043210;28;20037;-73
2023/03/28 05:18:24;;;;;;;1.10;0.70;;;;;;;;;;5040416;28;20040;-75
2023/03/28 05:20:49;;;;;;;2.93;0.87;;;;;;;;;;5021868;28;20047;-75
2023/03/28 05:23:15;;;;;;;1.70;0.73;;;;;;;;;;5025101;28;20405;-69
2023/03/28 05:25:40;;;;;;;2.30;0.70;;;;;;;;;;5027930;28;20047;-76
2023/03/28 05:28:06;;;;;;;1.10;0.70;;;;;;;;;;5027197;28;20025;-78
2023/03/28 05:30:31;;;;;;;0.85;0.70;;;;;;;;;;5043609;28;20029;-73
2023/03/28 05:32:57;;;;;;;1.77;0.60;;;;;;;;;;5046092;28;20028;-74
2023/03/28 05:35:22;;;;;;;0.80;0.60;;;;;;;;;;5024569;28;20045;-74
2023/03/28 05:37:48;;;;;;;0.67;0.40;;;;;;;;;;5036067;28;20033;-75
2023/03/28 05:40:14;;;;;;;1.73;0.63;;;;;;;;;;5020389;28;20363;-74
2023/03/28 05:42:39;;;;;;;0.75;0.55;;;;;;;;;;5045264;28;20068;-76
2023/03/28 05:45:05;;;;;;;1.73;0.82;;;;;;;;;;5043253;28;20053;-74
2023/03/28 05:47:30;;;;;;;0.77;0.60;;;;;;;;;;5014151;28;20084;-76
2023/03/28 05:49:56;;;;;;;1.52;0.75;;;;;;;;;;5029954;28;20537;-74
2023/03/28 05:52:21;;;;;;;1.48;0.60;;;;;;;;;;5036370;28;20117;-76
2023/03/28 05:54:46;;;;;;;1.20;0.60;;;;;;;;;;5025985;28;20047;-74
2023/03/28 05:57:11;;;;;;;1.10;0.70;;;;;;;;;;5034420;28;20036;-78
2023/03/28 05:59:39;;;;;;;0.80;0.60;;;;;;;;;;5019138;28;20252;-77
2023/03/28 06:02:05;;;;;;;0.80;0.60;;;;;;;;;;5037797;28;20037;-78
2023/03/28 06:04:31;;;;;;;1.30;0.80;;;;;;;;;;5018958;28;20073;-78
2023/03/28 06:06:56;;;;;;;1.27;0.60;;;;;;;;;;5006815;28;20127;-78
2023/03/28 06:09:22;;;;;;;0.88;0.57;;;;;;;;;;5021967;28;20539;-77
2023/03/28 06:11:47;;;;;;;1.98;0.93;;;;;;;;;;5006035;28;20039;-75
2023/03/28 06:14:12;;;;;;;1.30;0.70;;;;;;;;;;5038848;28;20530;-73
2023/03/28 06:16:37;;;;;;;1.10;0.70;;;;;;;;;;5016257;28;20300;-79
2023/03/28 06:19:03;;;;;;;2.10;0.80;;;;;;;;;;5040023;28;20172;-77
2023/03/28 06:21:28;;;;;;;4.68;1.10;;;;;;;;;;5027356;28;20033;-74
2023/03/28 06:23:53;;;;;;;2.57;1.07;;;;;;;;;;5040611;28;20041;-75
2023/03/28 06:26:18;;;;;;;2.17;1.23;;;;;;;;;;5040536;28;20128;-76
2023/03/28 06:28:44;;;;;;;1.40;0.77;;;;;;;;;;5040260;28;20159;-76
2023/03/28 06:31:12;;;;;;;1.67;0.83;;;;;;;;;;5023374;28;20041;-74
2023/03/28 06:33:40;;;;;;;1.77;0.80;;;;;;;;;;5013413;28;20522;-75
2023/03/28 06:36:06;;;;;;;1.90;0.80;;;;;;;;;;5037618;28;20049;-77
2023/03/28 06:38:32;;;;;;;1.70;0.80;;;;;;;;;;5037344;28;20036;-76
2023/03/28 06:40:58;;;;;;;3.17;0.80;;;;;;;;;;5003253;28;20199;-75
2023/03/28 06:43:23;;;;;;;1.20;0.80;;;;;;;;;;5038348;28;20118;-73
2023/03/28 06:45:48;;;;;;;1.40;0.77;;;;;;;;;;5038464;28;20307;-77
2023/03/28 06:48:13;;;;;;;2.33;0.87;;;;;;;;;;5030558;28;20794;-76
2023/03/28 06:50:39;;;;;;;1.65;0.75;;;;;;;;;;5024287;28;20307;-76
2023/03/28 06:53:04;;;;;;;1.52;0.80;;;;;;;;;;5041180;28;20116;-77
2023/03/28 06:55:30;;;;;;;1.83;1.00;;;;;;;;;;5032466;28;20052;-76
2023/03/28 06:57:55;;;;;;;2.75;0.90;;;;;;;;;;5034136;28;20036;-76
2023/03/28 07:00:20;;;;;;;1.73;0.90;;;;;;;;;;5021690;28;20037;-76
2023/03/28 07:02:45;;;;;;;1.67;0.77;;;;;;;;;;5041701;28;20033;-75
2023/03/28 07:05:11;;;;;;;1.60;1.00;;;;;;;;;;5038992;28;20047;-76
2023/03/28 07:07:36;;;;;;;1.40;0.90;;;;;;;;;;5026964;28;20475;-76
2023/03/28 07:10:01;;;;;;;1.83;1.00;;;;;;;;;;5033305;28;20268;-76
2023/03/28 07:12:26;;;;;;;1.60;0.93;;;;;;;;;;5019535;28;20326;-76
2023/03/28 07:14:52;;;;;;;2.17;0.93;;;;;;;;;;5006338;28;20261;-76
2023/03/28 07:17:17;;;;;;;2.20;0.90;;;;;;;;;;5039903;28;20753;-75
2023/03/28 07:19:44;;;;;;;1.83;1.00;;;;;;;;;;5052063;28;20951;-76
2023/03/28 07:22:12;;;;;;;2.38;1.73;;;;;;;;;;5021635;28;20295;-77
2023/03/28 07:24:37;;;;;;;1.75;0.90;;;;;;;;;;5014788;28;20044;-75
2023/03/28 07:27:02;;;;;;;1.83;0.98;;;;;;;;;;5027460;28;20510;-75
2023/03/28 07:29:27;;;;;;;4.15;3.10;;;;;;;;;;5033500;28;20017;-75
2023/03/28 07:31:53;;;;;;;2.33;1.00;;;;;;;;;;5041683;28;20120;-76
2023/03/28 07:34:19;;;;;;;2.00;1.00;;;;;;;;;;5017673;28;20069;-76
2023/03/28 07:36:44;;;;;;;2.28;1.10;;;;;;;;;;5031612;28;20267;-75
2023/03/28 07:39:09;;;;;;;2.60;1.37;;;;;;;;;;5030371;28;20462;-77
2023/03/28 07:41:34;;;;;;;1.73;0.90;;;;;;;;;;5037026;28;20486;-76
2023/03/28 07:44:00;;;;;;;2.58;1.10;;;;;;;;;;5025141;28;20206;-76
2023/03/28 07:46:26;;;;;;;2.15;1.00;;;;;;;;;;5027485;28;20033;-76
2023/03/28 07:48:51;;;;;;;2.45;1.30;;;;;;;;;;5003483;28;20068;-77
2023/03/28 07:51:17;;;;;;;2.40;1.20;;;;;;;;;;5026299;28;20492;-75
2023/03/28 07:53:42;;;;;;;2.13;1.10;;;;;;;;;;5025689;28;20272;-76
2023/03/28 07:56:11;;;;;;;3.05;1.42;;;;;;;;;;5022766;28;20022;-75
2023/03/28 07:58:39;;;;;;;2.42;1.10;;;;;;;;;;5024738;28;20021;-75
2023/03/28 08:01:05;;;;;;;1.83;1.10;;;;;;;;;;5029374;28;22307;-76
2023/03/28 08:03:31;;;;;;;1.75;0.95;;;;;;;;;;5021248;28;20461;-77
2023/03/28 08:06:01;;;;;;;1.88;1.05;;;;;;;;;;5016703;28;20085;-76
2023/03/28 08:08:26;;;;;;;2.53;1.08;;;;;;;;;;5022640;28;20567;-77
2023/03/28 08:10:51;;;;;;;2.90;1.00;;;;;;;;;;5025646;28;20117;-76
2023/03/28 08:13:18;;;;;;;2.87;1.23;;;;;;;;;;5011086;28;20391;-76
2023/03/28 08:15:43;;;;;;;3.72;2.20;;;;;;;;;;5036947;28;20117;-76
2023/03/28 08:18:08;;;;;;;1.80;1.10;;;;;;;;;;5045596;28;20116;-76
2023/03/28 08:20:34;;;;;;;2.03;1.27;;;;;;;;;;5031594;28;20284;-76
2023/03/28 08:23:01;;;;;;;2.50;1.20;;;;;;;;;;5032784;28;20069;-76
2023/03/28 08:25:27;;;;;;;3.33;1.35;;;;;;;;;;5038603;28;20268;-75
2023/03/28 08:27:53;;;;;;;2.28;1.10;;;;;;;;;;5039582;28;20491;-76
2023/03/28 08:30:18;;;;;;;2.50;1.03;;;;;;;;;;5011515;28;20029;-76
2023/03/28 08:32:43;;;;;;;2.20;1.30;;;;;;;;;;5045438;28;20044;-76
2023/03/28 08:35:09;;;;;;;2.17;1.10;;;;;;;;;;5002464;28;20183;-75
2023/03/28 08:37:35;;;;;;;2.03;1.10;;;;;;;;;;5020448;28;20400;-76
2023/03/28 08:40:00;;;;;;;1.92;1.02;;;;;;;;;;5022651;28;20044;-76
2023/03/28 08:42:41;;;;;;;2.77;1.20;;;;;;;;;;5027601;28;20116;-75
2023/03/28 08:45:12;;;;;;;1.77;1.10;;;;;;;;;;5019465;28;20276;-77
2023/03/28 08:47:40;;;;;;;2.38;1.20;;;;;;;;;;5030323;28;20030;-76
2023/03/28 08:50:08;;;;;;;2.60;2.08;;;;;;;;;;5019303;28;20040;-76
2023/03/28 08:52:33;;;;;;;2.00;1.10;;;;;;;;;;5016562;28;20563;-76
2023/03/28 08:55:01;;;;;;;4.57;1.40;;;;;;;;;;5022012;28;20105;-78
2023/03/28 08:57:31;;;;;;;2.10;1.02;;;;;;;;;;5033041;28;20086;-77
2023/03/28 09:00:11;;;;;;;2.50;1.02;;;;;;;;;;5010868;28;20521;-76
2023/03/28 09:02:37;;;;;;;2.33;0.95;;;;;;;;;;5035187;28;20045;-76
2023/03/28 09:05:02;;;;;;;1.90;1.10;;;;;;;;;;4997158;28;20051;-76
2023/03/28 09:07:35;;;;;;;2.88;1.13;;;;;;;;;;5023009;28;20110;-77
2023/03/28 09:10:22;;;;;;;3.58;1.15;;;;;;;;;;5021989;28;20065;-77
2023/03/28 09:13:30;;;;;;;2.63;1.00;;;;;;;;;;5035236;28;20082;-74
2023/03/28 09:16:08;;;;;;;1.80;1.02;;;;;;;;;;5030252;28;20500;-76
2023/03/28 09:18:53;;;;;;;2.47;1.30;;;;;;;;;;5024045;28;20041;-77
2023/03/28 09:21:22;;;;;;;3.22;1.20;;;;;;;;;;5021722;28;20033;-78
2023/03/28 09:23:53;;;;;;;2.20;1.00;;;;;;;;;;5027152;28;20060;-78
2023/03/28 09:26:21;;;;;;;2.17;1.20;;;;;;;;;;5042952;28;20059;-78
2023/03/28 09:28:58;;;;;;;3.08;1.25;;;;;;;;;;5029458;28;20032;-78
2023/03/28 09:31:26;;;;;;;1.92;1.20;;;;;;;;;;5033572;28;20840;-77
2023/03/28 09:33:53;;;;;;;2.50;1.23;;;;;;;;;;5007908;28;20355;-78
2023/03/28 09:36:19;;;;;;;2.28;0.95;;;;;;;;;;5040216;28;20045;-76
2023/03/28 09:38:46;;;;;;;3.03;1.20;;;;;;;;;;5028828;28;20542;-78
2023/03/28 09:41:13;;;;;;;2.38;1.27;;;;;;;;;;5026121;28;20296;-77
2023/03/28 09:43:41;;;;;;;4.28;1.10;;;;;;;;;;5009539;28;20132;-76
2023/03/28 09:46:07;;;;;;;1.98;1.10;;;;;;;;;;5022439;28;20033;-74
2023/03/28 09:48:33;;;;;;;1.73;0.95;;;;;;;;;;5008057;28;20037;-74
2023/03/28 09:50:58;;;;;;;2.53;1.30;;;;;;;;;;5016048;28;20087;-73
2023/03/28 09:53:27;;;;;;;2.33;0.95;;;;;;;;;;5039350;28;20041;-88
2023/03/28 09:55:53;;;;;;;2.13;1.05;;;;;;;;;;5037991;28;20048;-76
2023/03/28 09:58:18;;;;;;;1.67;0.98;;;;;;;;;;5033716;28;20033;-74
2023/03/28 10:00:48;;;;;;;1.88;1.17;;;;;;;;;;5010317;28;20049;-77
2023/03/28 10:03:28;;;;;;;1.70;1.00;;;;;;;;;;5031913;28;20726;-78
2023/03/28 10:05:53;;;;;;;2.08;1.10;;;;;;;;;;5021185;28;20072;-77
2023/03/28 10:08:23;;;;;;;3.40;1.17;;;;;;;;;;5033686;28;20134;-76
2023/03/28 10:10:55;;;;;;;2.95;1.27;;;;;;;;;;5049441;28;20048;-77
2023/03/28 10:13:22;;;;;;;2.97;1.20;;;;;;;;;;5027922;28;20033;-77
2023/03/28 10:15:48;;;;;;;1.75;1.10;;;;;;;;;;5020220;28;20044;-76
2023/03/28 10:18:14;;;;;;;2.50;1.15;;;;;;;;;;5030286;28;20120;-76
2023/03/28 10:20:40;;;;;;;1.95;1.08;;;;;;;;;;5021783;28;20041;-76
2023/03/28 10:23:05;;;;;;;3.42;1.20;;;;;;;;;;5049308;28;20041;-76
2023/03/28 10:25:37;;;;;;;2.25;1.27;;;;;;;;;;5019522;28;20520;-77
2023/03/28 10:28:04;;;;;;;1.90;1.13;;;;;;;;;;5014745;28;20051;-76
2023/03/28 10:30:29;;;;;;;3.05;1.08;;;;;;;;;;5025284;28;20047;-76
2023/03/28 10:33:13;;;;;;;2.30;1.15;;;;;;;;;;5029968;28;20037;-75
2023/03/28 10:35:41;;;;;;;2.90;1.10;;;;;;;;;;5044965;28;20049;-76
2023/03/28 10:38:14;;;;;;;2.28;1.20;;;;;;;;;;5012953;28;20021;-76
2023/03/28 10:40:39;;;;;;;2.45;1.25;;;;;;;;;;5013216;28;20040;-76
2023/03/28 10:43:09;;;;;;;2.53;1.00;;;;;;;;;;5022374;28;20029;-76
2023/03/28 10:45:45;;;;;;;2.00;0.95;;;;;;;;;;5023252;28;20264;-77
2023/03/28 10:48:20;;;;;;;2.38;1.10;;;;;;;;;;5033454;28;20536;-76
2023/03/28 10:50:52;;;;;;;2.40;1.10;;;;;;;;;;5014558;28;20075;-76
2023/03/28 10:53:23;;;;;;;1.55;1.00;;;;;;;;;;5011669;28;20536;-76
2023/03/28 10:56:07;;;;;;;1.83;1.13;;;;;;;;;;5043041;28;20030;-77
2023/03/28 10:58:44;;;;;;;2.17;1.23;;;;;;;;;;5038766;28;20059;-76
2023/03/28 11:01:19;;;;;;;1.77;0.90;;;;;;;;;;5019221;28;20045;-77
2023/03/28 11:03:45;;;;;;;1.95;1.20;;;;;;;;;;5022313;28;20064;-76
2023/03/28 11:06:11;;;;;;;2.40;1.20;;;;;;;;;;5049515;28;20496;-76
2023/03/28 11:08:45;;;;;;;1.80;1.20;;;;;;;;;;5012078;28;20144;-76
2023/03/28 11:11:20;;;;;;;1.95;1.00;;;;;;;;;;5038574;28;20033;-76
2023/03/28 11:13:49;;;;;;;1.50;1.00;;;;;;;;;;5013329;28;20052;-75
2023/03/28 11:16:17;;;;;;;1.42;0.90;;;;;;;;;;5057040;28;20056;-76
2023/03/28 11:19:01;;;;;;;1.50;1.02;;;;;;;;;;5048704;28;20110;-76
2023/03/28 11:21:30;;;;;;;1.63;1.00;;;;;;;;;;5017321;28;20049;-76
2023/03/28 11:23:55;;;;;;;2.15;1.08;;;;;;;;;;5047257;28;20033;-75
2023/03/28 11:26:41;;;;;;;1.43;0.97;;;;;;;;;;5040899;28;20009;-76
2023/03/28 11:29:12;;;;;;;2.30;1.85;;;;;;;;;;5024678;28;20044;-75
2023/03/28 11:31:45;;;;;;;1.90;1.20;;;;;;;;;;5048736;28;20033;-75
2023/03/28 11:34:12;;;;;;;1.50;0.90;;;;;;;;;;5014637;28;20423;-76
2023/03/28 11:36:57;;;;;;;2.90;1.20;;;;;;;;;;5045035;28;20030;-76
2023/03/28 11:39:31;;;;;;;2.40;1.00;;;;;;;;;;5013503;28;20048;-76
2023/03/28 11:41:58;;;;;;;2.10;1.00;;;;;;;;;;5045567;28;20040;-75
2023/03/28 11:44:26;;;;;;;2.42;1.08;;;;;;;;;;5028035;28;20546;-76
2023/03/28 11:46:55;;;;;;;1.98;1.10;;;;;;;;;;5008795;28;20496;-76
2023/03/28 11:49:50;;;;;;;2.50;1.00;;;;;;;;;;5028914;28;20044;-76
2023/03/28 11:52:22;;;;;;;1.65;1.10;;;;;;;;;;5026637;28;20029;-75
2023/03/28 11:54:48;;;;;;;1.23;0.82;;;;;;;;;;5029113;28;20637;-75
2023/03/28 11:57:23;;;;;;;1.20;0.90;;;;;;;;;;5004026;28;20030;-77
2023/03/28 12:00:03;;;;;;;1.80;1.00;;;;;;;;;;5022100;28;20071;-77
2023/03/28 12:02:35;;;;;;;2.20;1.15;;;;;;;;;;5023037;28;20126;-76
2023/03/28 12:05:21;;;;;;;1.33;0.80;;;;;;;;;;5010123;28;20028;-76
2023/03/28 12:08:06;;;;;;;1.80;0.90;;;;;;;;;;5039286;28;20033;-75
2023/03/28 12:10:35;;;;;;;1.45;0.80;;;;;;;;;;5022813;28;20033;-76
2023/03/28 12:13:10;;;;;;;1.63;1.00;;;;;;;;;;5012437;28;20028;-76
2023/03/28 12:15:37;;;;;;;1.42;1.00;;;;;;;;;;5036742;28;20148;-76
2023/03/28 12:18:04;;;;;;;2.00;0.93;;;;;;;;;;5012026;28;20041;-76
2023/03/28 12:20:30;;;;;;;1.42;0.85;;;;;;;;;;5031139;28;20025;-76
2023/03/28 12:22:58;;;;;;;1.45;1.00;;;;;;;;;;5022530;28;20422;-75
2023/03/28 12:25:34;;;;;;;1.98;1.08;;;;;;;;;;5024789;28;20040;-75
2023/03/28 12:27:59;;;;;;;1.45;0.90;;;;;;;;;;5028546;28;20040;-75
2023/03/28 12:30:24;;;;;;;2.20;1.00;;;;;;;;;;5047185;28;20045;-75
2023/03/28 12:32:56;;;;;;;1.52;1.05;;;;;;;;;;5045619;28;20041;-75
2023/03/28 12:35:34;;;;;;;1.38;0.77;;;;;;;;;;5046232;28;20033;-76
2023/03/28 12:37:59;;;;;;;1.27;0.85;;;;;;;;;;5041337;28;20182;-76
2023/03/28 12:40:27;;;;;;;1.35;0.77;;;;;;;;;;5042632;28;20104;-76
2023/03/28 12:42:53;;;;;;;1.63;1.00;;;;;;;;;;5039311;28;20132;-76
2023/03/28 12:45:19;;;;;;;1.77;1.20;;;;;;;;;;5011848;28;20128;-76
2023/03/28 12:47:45;;;;;;;1.67;1.00;;;;;;;;;;5026082;28;20069;-76
2023/03/28 12:50:16;;;;;;;1.70;0.90;;;;;;;;;;5020263;28;20029;-75
2023/03/28 12:52:42;;;;;;;1.40;0.93;;;;;;;;;;5022875;28;20056;-76
2023/03/28 12:55:30;;;;;;;1.50;0.90;;;;;;;;;;5022872;28;20048;-75
2023/03/28 12:58:12;;;;;;;2.53;1.15;;;;;;;;;;5030722;28;20033;-76
2023/03/28 13:00:48;;;;;;;1.70;0.90;;;;;;;;;;5016054;28;20048;-75
2023/03/28 13:03:17;;;;;;;1.80;0.93;;;;;;;;;;5011615;28;20152;-76
2023/03/28 13:05:48;;;;;;;2.17;0.95;;;;;;;;;;5039042;28;20040;-77
2023/03/28 13:08:33;;;;;;;1.45;1.00;;;;;;;;;;5042443;28;20043;-76
2023/03/28 13:11:18;;;;;;;1.10;0.93;;;;;;;;;;5006941;28;20025;-76
2023/03/28 13:13:45;;;;;;;1.17;0.82;;;;;;;;;;5046982;28;20029;-74
2023/03/28 13:16:37;;;;;;;2.00;1.13;;;;;;;;;;5037691;28;20379;-74
2023/03/28 13:19:06;;;;;;;1.90;0.90;;;;;;;;;;5045457;28;20097;-76
2023/03/28 13:21:41;;;;;;;1.55;1.02;;;;;;;;;;5027545;28;20072;-76
2023/03/28 13:24:26;;;;;;;1.30;0.82;;;;;;;;;;5028263;28;20051;-76
2023/03/28 13:26:54;;;;;;;1.40;0.90;;;;;;;;;;5050830;28;20048;-76
2023/03/28 13:29:20;;;;;;;1.48;1.10;;;;;;;;;;5014738;28;20123;-76
2023/03/28 13:31:45;;;;;;;1.43;0.83;;;;;;;;;;5048444;28;20057;-76
2023/03/28 13:34:16;;;;;;;1.30;0.83;;;;;;;;;;5028236;28;20328;-75
2023/03/28 13:36:48;;;;;;;1.90;1.17;;;;;;;;;;5028510;28;20037;-75
2023/03/28 13:39:20;;;;;;;1.45;1.00;;;;;;;;;;5028101;28;20668;-75
2023/03/28 13:41:45;;;;;;;1.40;0.88;;;;;;;;;;5011724;28;20037;-77
2023/03/28 13:44:12;;;;;;;1.17;0.87;;;;;;;;;;5045443;28;20682;-75
2023/03/28 13:46:44;;;;;;;2.00;1.00;;;;;;;;;;5025078;28;20276;-76
2023/03/28 13:49:09;;;;;;;1.55;0.80;;;;;;;;;;5015206;28;20360;-76
2023/03/28 13:51:39;;;;;;;17.42;2.25;;;;;;;;;;5044587;28;20051;-76
2023/03/28 13:54:04;;;;;;;1.58;0.70;;;;;;;;;;5028235;28;20036;-76
2023/03/28 13:56:33;;;;;;;3.05;0.80;;;;;;;;;;5026607;28;20025;-76
2023/03/28 13:58:59;;;;;;;1.48;0.70;;;;;;;;;;5024336;28;20025;-74
2023/03/28 14:01:25;;;;;;;2.22;0.70;;;;;;;;;;5023910;28;20029;-77
2023/03/28 14:03:51;;;;;;;2.00;0.85;;;;;;;;;;5005773;28;20064;-75
2023/03/28 14:06:21;;;;;;;2.70;0.88;;;;;;;;;;5008577;28;20088;-75
2023/03/28 14:08:46;;;;;;;1.75;0.80;;;;;;;;;;5016424;28;20112;-75
2023/03/28 14:11:13;;;;;;;2.15;0.80;;;;;;;;;;5027746;28;20564;-75
2023/03/28 14:13:39;;;;;;;2.53;0.90;;;;;;;;;;5030478;28;20033;-75
2023/03/28 14:16:05;;;;;;;2.40;0.80;;;;;;;;;;5040376;28;20667;-78
2023/03/28 14:18:34;;;;;;;2.38;1.00;;;;;;;;;;5036317;28;20504;-75
2023/03/28 14:21:00;;;;;;;2.13;1.00;;;;;;;;;;5016989;28;20049;-84
2023/03/28 14:23:25;;;;;;;2.53;0.90;;;;;;;;;;5034314;28;20400;-85
2023/03/28 14:25:50;;;;;;;2.50;1.17;;;;;;;;;;5040439;28;20085;-88
2023/03/28 14:28:15;;;;;;;1.83;0.90;;;;;;;;;;5037256;28;20814;-84
2023/03/28 14:30:41;;;;;;;1.00;0.60;;;;;;;;;;5051862;28;20341;-83
2023/03/28 14:33:09;;;;;;;1.90;0.80;;;;;;;;;;5056572;28;20275;-84
2023/03/28 14:35:35;;;;;;;2.22;1.58;;;;;;;;;;5034537;28;20053;-89
2023/03/28 14:38:20;;;;;;;1.23;0.95;;;;;;;;;;5016836;28;20421;-84
2023/03/28 14:40:45;;;;;;;1.27;0.70;;;;;;;;;;5014507;28;20758;-77
2023/03/28 14:43:12;;;;;;;2.40;0.80;;;;;;;;;;5021146;28;20113;-78
2023/03/28 14:45:47;;;;;;;1.83;1.17;;;;;;;;;;5042770;28;20452;-85
2023/03/28 14:48:28;;;;;;;1.42;0.77;;;;;;;;;;5028885;28;20159;-84
2023/03/28 14:50:53;;;;;;;2.63;1.27;;;;;;;;;;5012642;28;20047;-84